createdAt,value
2023-03-04T00:00:13.117Z,10.88
2023-03-04T00:02:40.268Z,12.32
2023-03-04T00:05:07.912Z,11.52
2023-03-04T00:07:35.116Z,11.05
2023-03-04T00:10:02.285Z,12.50
2023-03-04T00:12:29.384Z,11.05
2023-03-04T00:14:56.531Z,11.25
2023-03-04T00:17:24.219Z,12.07
2023-03-04T00:19:51.286Z,11.82
2023-03-04T00:22:18.398Z,11.70
2023-03-04T00:24:45.485Z,11.45
2023-03-04T00:27:12.604Z,10.70
2023-03-04T00:29:39.681Z,10.63
2023-03-04T00:32:06.906Z,10.55
2023-03-04T00:34:34.085Z,11.48
2023-03-04T00:37:03.731Z,10.70
2023-03-04T00:39:31.033Z,10.60
2023-03-04T00:41:58.146Z,11.15
2023-03-04T00:44:25.286Z,10.85
2023-03-04T00:46:52.445Z,10.73
2023-03-04T00:49:19.517Z,10.50
2023-03-04T00:51:46.639Z,11.00
2023-03-04T00:54:13.837Z,10.20
2023-03-04T00:56:40.950Z,10.15
2023-03-04T00:59:08.016Z,10.60
2023-03-04T01:01:35.114Z,10.63
2023-03-04T01:04:02.241Z,10.18
2023-03-04T01:06:29.335Z,10.15
2023-03-04T01:08:56.422Z,9.95
2023-03-04T01:11:23.589Z,9.98
2023-03-04T01:13:50.669Z,10.75
2023-03-04T01:16:17.909Z,9.13
2023-03-04T01:18:47.305Z,10.35
2023-03-04T01:21:14.507Z,9.60
2023-03-04T01:23:41.627Z,9.65
2023-03-04T01:26:08.745Z,8.93
2023-03-04T01:28:36.127Z,9.90
2023-03-04T01:31:04.468Z,9.68
2023-03-04T01:33:31.886Z,9.60
2023-03-04T01:35:58.993Z,9.73
2023-03-04T01:38:26.370Z,10.65
2023-03-04T01:40:53.955Z,9.40
2023-03-04T01:43:27.431Z,8.52
2023-03-04T01:45:56.417Z,9.60
2023-03-04T01:48:34.263Z,9.20
2023-03-04T01:51:03.307Z,8.50
2023-03-04T01:53:31.481Z,8.90
2023-03-04T01:56:12.070Z,9.60
2023-03-04T01:58:39.186Z,9.30
2023-03-04T02:01:06.295Z,9.48
2023-03-04T02:03:33.426Z,8.15
2023-03-04T02:06:00.587Z,8.85
2023-03-04T02:08:27.698Z,8.18
2023-03-04T02:10:55.374Z,8.10
2023-03-04T02:13:22.655Z,8.15
2023-03-04T02:15:49.828Z,7.40
2023-03-04T02:18:20.478Z,8.32
2023-03-04T02:21:23.605Z,8.63
2023-03-04T02:24:02.746Z,8.43
2023-03-04T02:26:31.665Z,7.85
2023-03-04T02:29:00.611Z,7.93
2023-03-04T02:31:40.903Z,7.75
2023-03-04T02:34:20.433Z,8.40
2023-03-04T02:36:49.285Z,8.50
2023-03-04T02:39:32.191Z,8.43
2023-03-04T02:42:00.200Z,8.07
2023-03-04T02:44:30.955Z,7.88
2023-03-04T02:46:58.985Z,8.05
2023-03-04T02:49:28.260Z,7.15
2023-03-04T02:52:08.003Z,7.82
2023-03-04T02:54:35.268Z,7.63
2023-03-04T02:57:05.072Z,7.65
2023-03-04T02:59:32.194Z,7.68
2023-03-04T03:01:59.579Z,7.90
2023-03-04T03:04:28.883Z,7.28
2023-03-04T03:06:56.229Z,6.95
2023-03-04T03:09:23.621Z,6.47
2023-03-04T03:11:50.886Z,7.05
2023-03-04T03:14:18.054Z,6.20
2023-03-04T03:16:45.222Z,7.90
2023-03-04T03:19:12.384Z,7.50
2023-03-04T03:21:39.509Z,7.18
2023-03-04T03:24:06.790Z,6.93
2023-03-04T03:26:33.889Z,6.80
2023-03-04T03:29:00.964Z,7.05
2023-03-04T03:31:30.853Z,6.68
2023-03-04T03:33:58.029Z,7.18
2023-03-04T03:36:25.174Z,7.00
2023-03-04T03:38:52.316Z,6.25
2023-03-04T03:41:19.396Z,6.13
2023-03-04T03:43:46.498Z,6.57
2023-03-04T03:46:13.725Z,6.60
2023-03-04T03:48:40.890Z,6.85
2023-03-04T03:51:07.977Z,7.18
2023-03-04T03:53:35.101Z,5.68
2023-03-04T03:56:02.184Z,6.20
2023-03-04T03:58:29.327Z,6.40
2023-03-04T04:00:58.306Z,6.70
2023-03-04T04:03:26.137Z,6.50
2023-03-04T04:05:53.376Z,5.32
2023-03-04T04:08:20.526Z,6.50
2023-03-04T04:10:47.676Z,6.35
2023-03-04T04:13:14.978Z,6.30
2023-03-04T04:15:42.183Z,6.07
2023-03-04T04:18:09.681Z,5.90
2023-03-04T04:20:37.051Z,6.00
2023-03-04T04:23:05.068Z,5.50
2023-03-04T04:25:32.147Z,6.00
2023-03-04T04:27:59.689Z,6.35
2023-03-04T04:30:26.937Z,5.60
2023-03-04T04:32:54.200Z,5.75
2023-03-04T04:35:21.430Z,6.25
2023-03-04T04:37:48.631Z,6.07
2023-03-04T04:40:16.881Z,5.25
2023-03-04T04:42:43.928Z,5.90
2023-03-04T04:45:11.581Z,5.90
2023-03-04T04:47:38.856Z,5.80
2023-03-04T04:50:06.644Z,6.15
2023-03-04T04:52:33.840Z,5.90
2023-03-04T04:55:01.091Z,6.22
2023-03-04T04:57:28.225Z,5.80
2023-03-04T04:59:55.340Z,5.75
2023-03-04T05:02:22.540Z,5.13
2023-03-04T05:04:49.674Z,5.65
2023-03-04T05:07:16.749Z,5.53
2023-03-04T05:09:43.906Z,5.43
2023-03-04T05:12:10.968Z,5.47
2023-03-04T05:14:38.390Z,5.45
2023-03-04T05:17:05.539Z,5.50
2023-03-04T05:19:32.632Z,5.30
2023-03-04T05:21:59.686Z,5.10
2023-03-04T05:24:26.891Z,5.75
2023-03-04T05:26:53.981Z,6.25
2023-03-04T05:29:21.227Z,5.05
2023-03-04T05:31:48.344Z,5.45
2023-03-04T05:34:15.523Z,5.53
2023-03-04T05:36:42.587Z,5.50
2023-03-04T05:39:09.876Z,5.25
2023-03-04T05:41:37.031Z,6.00
2023-03-04T05:44:04.489Z,5.78
2023-03-04T05:46:33.512Z,6.32
2023-03-04T05:49:00.904Z,6.13
2023-03-04T05:51:28.030Z,5.95
2023-03-04T05:53:55.161Z,6.22
2023-03-04T05:56:22.391Z,6.20
2023-03-04T05:58:49.574Z,5.88
2023-03-04T06:01:17.296Z,6.35
2023-03-04T06:03:44.845Z,6.40
2023-03-04T06:06:12.009Z,6.15
2023-03-04T06:08:39.131Z,6.28
2023-03-04T06:11:06.733Z,6.07
2023-03-04T06:13:34.774Z,6.30
2023-03-04T06:16:02.424Z,6.32
2023-03-04T06:18:30.058Z,6.40
2023-03-04T06:20:59.848Z,6.35
2023-03-04T06:23:28.043Z,5.70
2023-03-04T06:25:57.278Z,6.15
2023-03-04T06:28:24.957Z,6.55
2023-03-04T06:30:53.301Z,7.20
2023-03-04T06:33:20.815Z,6.68
2023-03-04T06:35:48.107Z,6.20
2023-03-04T06:38:15.327Z,6.28
2023-03-04T06:40:42.479Z,6.57
2023-03-04T06:43:09.637Z,7.15
2023-03-04T06:45:39.543Z,7.28
2023-03-04T06:48:06.976Z,8.32
2023-03-04T06:50:34.070Z,6.85
2023-03-04T06:53:01.181Z,7.20
2023-03-04T06:55:28.267Z,7.00
2023-03-04T06:57:55.357Z,7.00
2023-03-04T07:00:24.218Z,7.40
2023-03-04T07:02:53.991Z,7.20
2023-03-04T07:05:22.123Z,6.95
2023-03-04T07:07:49.886Z,8.23
2023-03-04T07:10:18.928Z,8.02
2023-03-04T07:12:46.101Z,8.85
2023-03-04T07:15:13.486Z,8.10
2023-03-04T07:17:40.848Z,8.73
2023-03-04T07:20:08.480Z,8.93
2023-03-04T07:22:35.547Z,9.00
2023-03-04T07:25:02.676Z,8.65
2023-03-04T07:27:29.785Z,8.55
2023-03-04T07:29:56.861Z,9.05
2023-03-04T07:32:24.057Z,9.50
2023-03-04T07:34:51.729Z,9.52
2023-03-04T07:37:20.632Z,10.07
2023-03-04T07:39:47.791Z,10.93
2023-03-04T07:42:14.964Z,9.73
2023-03-04T07:44:42.065Z,11.27
2023-03-04T07:47:09.107Z,10.75
2023-03-04T07:49:36.260Z,10.50
2023-03-04T07:52:05.248Z,11.20
2023-03-04T07:54:33.094Z,9.48
2023-03-04T07:57:00.244Z,9.65
2023-03-04T07:59:27.326Z,9.93
2023-03-04T08:01:54.410Z,9.32
2023-03-04T08:04:21.617Z,11.05
2023-03-04T08:06:49.003Z,9.07
2023-03-04T08:09:16.113Z,10.85
2023-03-04T08:11:43.875Z,9.90
2023-03-04T08:14:12.623Z,10.00
2023-03-04T08:16:40.194Z,10.73
2023-03-04T08:19:07.877Z,10.20
2023-03-04T08:21:35.619Z,10.07
2023-03-04T08:24:08.473Z,10.02
2023-03-04T08:26:42.165Z,9.70
2023-03-04T08:29:13.782Z,10.15
2023-03-04T08:31:41.108Z,10.75
2023-03-04T08:34:10.652Z,10.43
2023-03-04T08:36:37.960Z,10.43
2023-03-04T08:39:05.527Z,9.32
2023-03-04T08:41:33.227Z,9.88
2023-03-04T08:44:01.416Z,9.13
2023-03-04T08:46:30.599Z,9.55
2023-03-04T08:48:57.826Z,9.60
2023-03-04T08:51:26.170Z,10.27
2023-03-04T08:53:53.419Z,9.63
2023-03-04T08:56:20.559Z,10.10
2023-03-04T08:58:47.667Z,8.60
2023-03-04T09:01:15.713Z,9.18
2023-03-04T09:03:44.099Z,9.48
2023-03-04T09:06:16.999Z,9.30
2023-03-04T09:08:45.263Z,9.80
2023-03-04T09:11:13.752Z,8.27
2023-03-04T09:13:41.048Z,9.23
2023-03-04T09:16:13.647Z,9.05
2023-03-04T09:18:42.092Z,8.85
2023-03-04T09:21:09.771Z,9.82
2023-03-04T09:23:37.483Z,8.20
2023-03-04T09:26:21.557Z,8.25
2023-03-04T09:28:58.025Z,9.50
2023-03-04T09:31:26.448Z,9.23
2023-03-04T09:33:56.143Z,8.52
2023-03-04T09:36:23.668Z,8.05
2023-03-04T09:38:50.869Z,8.27
2023-03-04T09:41:22.944Z,9.20
2023-03-04T09:43:52.737Z,8.30
2023-03-04T09:46:35.185Z,8.38
2023-03-04T09:49:03.286Z,8.13
2023-03-04T09:52:10.696Z,8.10
2023-03-04T09:55:05.204Z,9.00
2023-03-04T09:57:53.033Z,8.07
2023-03-04T10:00:43.691Z,7.93
2023-03-04T10:03:19.316Z,7.95
2023-03-04T10:05:56.274Z,8.93
2023-03-04T10:08:42.367Z,7.90
2023-03-04T10:11:17.549Z,8.48
2023-03-04T10:13:56.252Z,7.47
2023-03-04T10:16:29.546Z,7.60
2023-03-04T10:19:22.181Z,8.25
2023-03-04T10:21:51.414Z,8.07
2023-03-04T10:24:25.332Z,7.82
2023-03-04T10:27:02.133Z,8.10
2023-03-04T10:29:31.552Z,7.88
2023-03-04T10:31:58.836Z,7.47
2023-03-04T10:34:26.660Z,8.23
2023-03-04T10:36:59.368Z,7.82
2023-03-04T10:39:38.644Z,7.47
2023-03-04T10:42:28.218Z,7.80
2023-03-04T10:44:58.898Z,7.78
2023-03-04T10:47:29.747Z,7.97
2023-03-04T10:50:02.643Z,8.20
2023-03-04T10:52:35.403Z,7.85
2023-03-04T10:55:15.971Z,7.25
2023-03-04T10:57:48.386Z,7.50
2023-03-04T11:00:29.930Z,7.55
2023-03-04T11:03:26.975Z,7.97
2023-03-04T11:06:13.452Z,7.50
2023-03-04T11:08:42.376Z,7.57
2023-03-04T11:11:39.212Z,8.20
2023-03-04T11:14:20.790Z,7.40
2023-03-04T11:17:00.714Z,7.55
2023-03-04T11:19:38.608Z,8.05
2023-03-04T11:22:06.353Z,8.13
2023-03-04T11:24:37.210Z,7.55
2023-03-04T11:27:08.736Z,7.22
2023-03-04T11:29:46.440Z,7.60
2023-03-04T11:32:24.496Z,8.38
2023-03-04T11:35:15.358Z,9.23
2023-03-04T11:38:09.644Z,7.70
2023-03-04T11:40:53.022Z,7.78
2023-03-04T11:43:27.589Z,8.50
2023-03-04T11:46:21.728Z,7.25
2023-03-04T11:49:13.187Z,7.03
2023-03-04T11:52:10.511Z,8.32
2023-03-04T11:55:17.326Z,8.13
2023-03-04T11:58:10.222Z,8.85
2023-03-04T12:01:02.395Z,7.80
2023-03-04T12:03:57.496Z,8.18
2023-03-04T12:06:52.140Z,7.80
2023-03-04T12:09:55.875Z,8.10
2023-03-04T12:13:02.650Z,8.10
2023-03-04T12:15:44.590Z,8.60
2023-03-04T12:18:35.309Z,8.55
2023-03-04T12:21:18.281Z,8.32
2023-03-04T12:24:15.934Z,9.05
2023-03-04T12:27:22.745Z,7.82
2023-03-04T12:30:17.185Z,7.93
2023-03-04T12:33:24.069Z,8.35
2023-03-04T12:36:19.403Z,7.85
2023-03-04T12:38:59.900Z,8.35
2023-03-04T12:41:43.998Z,7.65
2023-03-04T12:44:20.229Z,7.68
2023-03-04T12:47:27.096Z,7.45
2023-03-04T12:50:21.724Z,8.48
2023-03-04T12:53:09.776Z,8.77
2023-03-04T12:55:40.138Z,8.75
2023-03-04T12:58:21.492Z,8.15
2023-03-04T13:01:05.077Z,8.73
2023-03-04T13:04:06.735Z,7.93
2023-03-04T13:07:13.629Z,8.00
2023-03-04T13:10:11.662Z,7.32
2023-03-04T13:12:52.004Z,7.65
2023-03-04T13:15:30.259Z,8.05
2023-03-04T13:18:00.389Z,7.43
2023-03-04T13:23:21.850Z,8.77
2023-03-04T13:26:09.463Z,7.35
2023-03-04T13:28:38.010Z,7.60
2023-03-04T13:31:12.942Z,7.35
2023-03-04T13:33:46.305Z,8.93
2023-03-04T13:36:55.012Z,8.40
2023-03-04T13:39:28.679Z,7.38
2023-03-04T13:41:59.806Z,7.53
2023-03-04T13:44:59.630Z,7.78
2023-03-04T13:47:34.455Z,7.32
2023-03-04T13:50:27.338Z,7.70
2023-03-04T13:52:55.608Z,7.82
2023-03-04T13:55:41.214Z,7.28
2023-03-04T13:58:24.103Z,7.25
2023-03-04T14:00:54.042Z,7.70
2023-03-04T14:03:25.802Z,8.05
2023-03-04T14:06:18.343Z,8.23
2023-03-04T14:08:46.953Z,7.57
2023-03-04T14:11:22.744Z,7.97
2023-03-04T14:13:50.023Z,8.57
2023-03-04T14:16:22.116Z,7.40
2023-03-04T14:19:04.967Z,7.78
2023-03-04T14:21:32.824Z,7.43
2023-03-04T14:24:02.715Z,7.82
2023-03-04T14:26:31.235Z,7.35
2023-03-04T14:28:59.837Z,7.70
2023-03-04T14:31:30.466Z,7.57
2023-03-04T14:34:02.279Z,7.25
2023-03-04T14:36:35.976Z,8.15
2023-03-04T14:39:06.074Z,7.40
2023-03-04T14:41:41.543Z,6.97
2023-03-04T14:44:26.882Z,7.05
2023-03-04T14:47:07.526Z,7.60
2023-03-04T14:49:38.542Z,7.25
2023-03-04T14:52:06.737Z,8.10
2023-03-04T14:54:41.756Z,7.20
2023-03-04T14:57:30.060Z,6.90
2023-03-04T14:59:57.197Z,8.55
2023-03-04T15:02:33.463Z,6.57
2023-03-04T15:05:26.303Z,6.60
2023-03-04T15:08:00.354Z,6.82
2023-03-04T15:10:33.705Z,7.07
2023-03-04T15:13:04.124Z,6.78
2023-03-04T15:15:44.350Z,6.43
2023-03-04T15:20:56.050Z,6.35
2023-03-04T15:23:31.655Z,6.47
2023-03-04T15:26:02.175Z,6.32
2023-03-04T15:28:36.522Z,6.47
2023-03-04T15:31:05.130Z,6.25
2023-03-04T15:33:32.938Z,5.53
2023-03-04T15:36:02.556Z,5.70
2023-03-04T15:38:30.627Z,6.07
2023-03-04T15:40:59.783Z,5.75
2023-03-04T15:43:27.068Z,5.63
2023-03-04T15:45:54.407Z,5.70
2023-03-04T15:48:21.804Z,5.50
2023-03-04T15:50:55.398Z,5.53
2023-03-04T15:53:37.252Z,4.93
2023-03-04T15:56:08.199Z,5.47
2023-03-04T15:58:35.574Z,5.30
2023-03-04T16:01:03.098Z,5.55
2023-03-04T16:03:30.399Z,5.53
2023-03-04T16:05:57.538Z,5.68
2023-03-04T16:08:25.441Z,5.22
2023-03-04T16:10:54.054Z,5.70
2023-03-04T16:13:23.478Z,4.97
2023-03-04T16:15:50.927Z,5.03
2023-03-04T16:18:18.481Z,5.20
2023-03-04T16:20:48.309Z,5.03
2023-03-04T16:23:19.526Z,4.88
2023-03-04T16:25:48.571Z,5.53
2023-03-04T16:28:15.700Z,5.70
2023-03-04T16:30:43.577Z,5.03
2023-03-04T16:33:11.635Z,4.90
2023-03-04T16:35:39.856Z,4.90
2023-03-04T16:38:19.341Z,5.13
2023-03-04T16:40:46.498Z,5.17
2023-03-04T16:43:14.884Z,4.68
2023-03-04T16:45:42.723Z,5.07
2023-03-04T16:48:10.330Z,4.97
2023-03-04T16:50:38.594Z,4.68
2023-03-04T16:53:08.643Z,5.03
2023-03-04T16:55:38.002Z,5.20
2023-03-04T16:58:07.365Z,4.82
2023-03-04T17:03:02.389Z,4.82
2023-03-04T17:05:32.339Z,4.63
2023-03-04T17:07:59.667Z,4.85
2023-03-04T17:10:27.579Z,4.30
2023-03-04T17:12:54.883Z,5.30
2023-03-04T17:15:22.009Z,5.05
2023-03-04T17:17:49.220Z,4.85
2023-03-04T17:20:18.254Z,4.53
2023-03-04T17:22:45.684Z,4.97
2023-03-04T17:25:13.352Z,4.78
2023-03-04T17:27:41.160Z,4.70
2023-03-04T17:30:11.688Z,4.45
2023-03-04T17:32:40.312Z,5.25
2023-03-04T17:35:09.120Z,5.30
2023-03-04T17:37:37.129Z,4.65
2023-03-04T17:40:06.610Z,4.78
2023-03-04T17:42:33.737Z,4.13
2023-03-04T17:45:00.924Z,4.43
2023-03-04T17:47:31.819Z,5.00
2023-03-04T17:49:59.019Z,4.63
2023-03-04T17:52:26.231Z,4.13
2023-03-04T17:54:53.381Z,4.32
2023-03-04T17:57:20.497Z,5.45
2023-03-04T17:59:47.646Z,4.88
2023-03-04T18:02:16.167Z,4.88
2023-03-04T18:04:46.145Z,4.63
2023-03-04T18:07:13.359Z,4.97
2023-03-04T18:09:40.742Z,4.60
2023-03-04T18:12:08.642Z,4.85
2023-03-04T18:14:35.807Z,5.18
2023-03-04T18:17:03.065Z,5.43
2023-03-04T18:19:30.267Z,4.43
2023-03-04T18:21:57.506Z,4.45
2023-03-04T18:24:24.577Z,4.97
2023-03-04T18:26:51.823Z,5.05
2023-03-04T18:29:18.905Z,5.15
2023-03-04T18:31:46.038Z,4.85
2023-03-04T18:34:13.168Z,5.47
2023-03-04T18:36:41.512Z,5.35
2023-03-04T18:39:09.538Z,5.82
2023-03-04T18:41:36.739Z,5.00
2023-03-04T18:44:05.125Z,5.22
2023-03-04T18:46:50.536Z,5.50
2023-03-04T18:49:20.022Z,5.07
2023-03-04T18:51:47.250Z,4.90
2023-03-04T18:54:14.477Z,5.60
2023-03-04T18:56:49.155Z,5.18
2023-03-04T18:59:22.757Z,5.50
2023-03-04T19:01:51.433Z,5.50
2023-03-04T19:04:21.424Z,6.30
2023-03-04T19:09:19.225Z,5.63
2023-03-04T19:11:46.303Z,5.75
2023-03-04T19:14:13.497Z,5.47
2023-03-04T19:16:40.770Z,5.30
2023-03-04T19:19:07.942Z,6.47
2023-03-04T19:21:42.025Z,6.78
2023-03-04T19:24:09.277Z,6.30
2023-03-04T19:26:36.653Z,6.07
2023-03-04T19:29:05.214Z,6.25
2023-03-04T19:31:32.333Z,5.90
2023-03-04T19:33:59.788Z,6.25
2023-03-04T19:36:27.049Z,6.15
2023-03-04T19:38:55.629Z,5.68
2023-03-04T19:41:23.146Z,6.18
2023-03-04T19:43:50.528Z,6.82
2023-03-04T19:46:17.860Z,6.97
2023-03-04T19:48:45.337Z,7.00
2023-03-04T19:51:20.914Z,6.22
2023-03-04T19:53:48.955Z,6.05
2023-03-04T19:56:16.143Z,6.78
2023-03-04T19:58:43.642Z,7.10
2023-03-04T20:01:28.387Z,6.68
2023-03-04T20:04:01.168Z,6.45
2023-03-04T20:06:29.015Z,6.53
2023-03-04T20:08:58.778Z,6.80
2023-03-04T20:11:27.453Z,6.82
2023-03-04T20:13:55.191Z,6.95
2023-03-04T20:16:22.302Z,6.93
2023-03-04T20:18:49.392Z,6.93
2023-03-04T20:21:16.670Z,7.65
2023-03-04T20:23:43.905Z,6.70
2023-03-04T20:26:11.214Z,6.88
2023-03-04T20:28:38.487Z,6.93
2023-03-04T20:31:21.259Z,6.78
2023-03-04T20:33:50.072Z,6.90
2023-03-04T20:36:18.545Z,7.32
2023-03-04T20:38:45.902Z,6.70
2023-03-04T20:41:13.162Z,6.53
2023-03-04T20:43:40.605Z,6.90
2023-03-04T20:46:29.377Z,6.45
2023-03-04T20:48:59.258Z,6.95
2023-03-04T20:51:29.705Z,7.10
2023-03-04T20:56:24.706Z,6.72
2023-03-04T20:58:53.105Z,7.53
2023-03-04T21:01:20.482Z,6.68
2023-03-04T21:03:48.674Z,7.10
2023-03-04T21:06:15.802Z,6.60
2023-03-04T21:08:43.817Z,6.97
2023-03-04T21:11:12.793Z,7.45
2023-03-04T21:13:41.467Z,6.47
2023-03-04T21:16:16.777Z,6.95
2023-03-04T21:18:44.584Z,7.50
2023-03-04T21:21:23.935Z,6.70
2023-03-04T21:23:53.642Z,7.20
2023-03-04T21:26:22.370Z,6.88
2023-03-04T21:28:51.129Z,6.72
2023-03-04T21:31:27.153Z,7.13
2023-03-04T21:33:55.564Z,7.68
2023-03-04T21:36:23.314Z,6.63
2023-03-04T21:38:50.589Z,7.40
2023-03-04T21:41:20.540Z,6.78
2023-03-04T21:43:47.962Z,7.03
2023-03-04T21:46:17.071Z,6.57
2023-03-04T21:48:45.000Z,6.95
2023-03-04T21:51:14.706Z,7.43
2023-03-04T21:53:43.480Z,6.88
2023-03-04T21:56:12.027Z,6.85
2023-03-04T21:58:42.368Z,6.80
2023-03-04T22:03:40.400Z,6.65
2023-03-04T22:06:09.583Z,6.15
2023-03-04T22:08:37.981Z,7.18
2023-03-04T22:11:07.140Z,7.22
2023-03-04T22:13:34.847Z,6.28
2023-03-04T22:16:02.338Z,6.45
2023-03-04T22:18:29.508Z,6.53
2023-03-04T22:21:06.210Z,6.63
2023-03-04T22:23:33.825Z,6.05
2023-03-04T22:26:06.450Z,5.68
2023-03-04T22:28:33.807Z,5.70
2023-03-04T22:31:02.116Z,6.68
2023-03-04T22:33:29.686Z,6.05
2023-03-04T22:35:56.909Z,5.50
2023-03-04T22:38:24.094Z,6.05
2023-03-04T22:40:51.351Z,6.32
2023-03-04T22:43:18.529Z,6.00
2023-03-04T22:45:45.677Z,5.57
2023-03-04T22:48:14.577Z,5.85
2023-03-04T22:50:42.136Z,5.25
2023-03-04T22:53:09.289Z,5.97
2023-03-04T22:55:36.481Z,5.90
2023-03-04T22:58:04.368Z,6.03
2023-03-04T23:00:32.401Z,5.45
2023-03-04T23:02:59.617Z,5.82
2023-03-04T23:05:27.036Z,5.43
2023-03-04T23:07:54.304Z,5.60
2023-03-04T23:10:24.409Z,5.65
2023-03-04T23:12:52.819Z,5.75
2023-03-04T23:15:20.313Z,5.10
2023-03-04T23:17:47.961Z,4.85
2023-03-04T23:20:19.495Z,5.25
2023-03-04T23:22:48.007Z,5.20
2023-03-04T23:25:16.463Z,4.88
2023-03-04T23:27:44.255Z,5.05
2023-03-04T23:30:16.855Z,4.82
2023-03-04T23:32:44.415Z,4.97
2023-03-04T23:35:11.806Z,5.00
2023-03-04T23:37:39.225Z,4.47
2023-03-04T23:40:06.832Z,4.80
2023-03-04T23:42:33.934Z,5.18
2023-03-04T23:45:01.055Z,4.55
2023-03-04T23:47:28.181Z,4.32
2023-03-04T23:49:55.396Z,4.68
2023-03-04T23:52:22.529Z,4.35
2023-03-04T23:54:49.613Z,4.80
2023-03-04T23:57:16.767Z,4.07
2023-03-04T23:59:44.186Z,4.05
